sensor_id;sensor_type;location;lat;lon;timestamp;pressure;altitude;pressure_sealevel;temperature;humidity
28432;BME280;15664;51.302;7.744;2023-02-19T00:01:13;83230.53;;;-146.98;100.00
28432;BME280;15664;51.302;7.744;2023-02-19T00:03:39;83204.06;;;-146.98;100.00
28432;BME280;15664;51.302;7.744;2023-02-19T00:06:07;83171.47;;;-146.98;100.00
28432;BME280;15664;51.302;7.744;2023-02-19T00:08:34;83189.78;;;-146.98;100.00
28432;BME280;15664;51.302;7.744;2023-02-19T00:11:05;83199.97;;;-146.98;100.00
28432;BME280;15664;51.302;7.744;2023-02-19T00:13:35;83189.78;;;-146.98;100.00
28432;BME280;15664;51.302;7.744;2023-02-19T00:16:09;83220.34;;;-146.98;100.00
28432;BME280;15664;51.302;7.744;2023-02-19T00:18:36;83173.50;;;-146.98;100.00
28432;BME280;15664;51.302;7.744;2023-02-19T00:21:02;83189.78;;;-146.98;100.00
28432;BME280;15664;51.302;7.744;2023-02-19T00:23:28;83191.84;;;-146.98;100.00
28432;BME280;15664;51.302;7.744;2023-02-19T00:25:54;83187.75;;;-146.98;100.00
28432;BME280;15664;51.302;7.744;2023-02-19T00:28:20;83189.78;;;-146.98;100.00
28432;BME280;15664;51.302;7.744;2023-02-19T00:30:45;83149.06;;;-146.98;100.00
28432;BME280;15664;51.302;7.744;2023-02-19T00:33:11;83181.66;;;-146.98;100.00
28432;BME280;15664;51.302;7.744;2023-02-19T00:35:36;83175.53;;;-146.98;100.00
28432;BME280;15664;51.302;7.744;2023-02-19T00:38:03;83242.75;;;-146.98;100.00
28432;BME280;15664;51.302;7.744;2023-02-19T00:40:29;83206.09;;;-146.98;100.00
28432;BME280;15664;51.302;7.744;2023-02-19T00:42:55;83212.19;;;-146.98;100.00
28432;BME280;15664;51.302;7.744;2023-02-19T00:45:20;83159.25;;;-146.98;100.00
28432;BME280;15664;51.302;7.744;2023-02-19T00:47:46;83193.88;;;-146.98;100.00
28432;BME280;15664;51.302;7.744;2023-02-19T00:50:12;83161.28;;;-146.98;100.00
28432;BME280;15664;51.302;7.744;2023-02-19T00:52:37;83238.66;;;-146.98;100.00
28432;BME280;15664;51.302;7.744;2023-02-19T00:55:03;83191.84;;;-146.98;100.00
28432;BME280;15664;51.302;7.744;2023-02-19T00:57:29;83179.63;;;-146.98;100.00
28432;BME280;15664;51.302;7.744;2023-02-19T00:59:54;83171.47;;;-146.98;100.00
28432;BME280;15664;51.302;7.744;2023-02-19T01:02:20;83202.00;;;-146.98;100.00
28432;BME280;15664;51.302;7.744;2023-02-19T01:04:45;83214.22;;;-146.98;100.00
28432;BME280;15664;51.302;7.744;2023-02-19T01:07:11;83126.66;;;-146.98;100.00
28432;BME280;15664;51.302;7.744;2023-02-19T01:09:36;83185.72;;;-146.98;100.00
28432;BME280;15664;51.302;7.744;2023-02-19T01:12:04;83191.84;;;-146.98;100.00
28432;BME280;15664;51.302;7.744;2023-02-19T01:14:30;83191.84;;;-146.98;100.00
28432;BME280;15664;51.302;7.744;2023-02-19T01:16:56;83202.00;;;-146.98;100.00
28432;BME280;15664;51.302;7.744;2023-02-19T01:19:22;83267.19;;;-146.98;100.00
28432;BME280;15664;51.302;7.744;2023-02-19T01:21:47;83167.41;;;-146.98;100.00
28432;BME280;15664;51.302;7.744;2023-02-19T01:24:13;83202.00;;;-146.98;100.00
28432;BME280;15664;51.302;7.744;2023-02-19T01:26:39;83185.72;;;-146.98;100.00
28432;BME280;15664;51.302;7.744;2023-02-19T01:29:05;83208.13;;;-146.98;100.00
28432;BME280;15664;51.302;7.744;2023-02-19T01:31:30;83222.38;;;-146.98;100.00
28432;BME280;15664;51.302;7.744;2023-02-19T01:33:58;83208.13;;;-146.98;100.00
28432;BME280;15664;51.302;7.744;2023-02-19T01:36:24;83206.09;;;-146.98;100.00
28432;BME280;15664;51.302;7.744;2023-02-19T01:38:50;83246.81;;;-146.98;100.00
28432;BME280;15664;51.302;7.744;2023-02-19T01:41:19;83187.75;;;-146.98;100.00
28432;BME280;15664;51.302;7.744;2023-02-19T01:46:36;83161.28;;;-146.98;100.00
28432;BME280;15664;51.302;7.744;2023-02-19T01:49:11;83252.94;;;-146.98;100.00
28432;BME280;15664;51.302;7.744;2023-02-19T01:51:53;83197.94;;;-146.98;100.00
28432;BME280;15664;51.302;7.744;2023-02-19T01:54:21;83218.31;;;-146.98;100.00
28432;BME280;15664;51.302;7.744;2023-02-19T01:56:48;83197.94;;;-146.98;100.00
28432;BME280;15664;51.302;7.744;2023-02-19T01:59:15;83234.59;;;-146.98;100.00
28432;BME280;15664;51.302;7.744;2023-02-19T02:01:42;83218.31;;;-146.98;100.00
28432;BME280;15664;51.302;7.744;2023-02-19T02:04:08;83189.78;;;-146.98;100.00
28432;BME280;15664;51.302;7.744;2023-02-19T02:06:58;83283.47;;;-146.98;100.00
28432;BME280;15664;51.302;7.744;2023-02-19T02:09:28;83273.28;;;-146.98;100.00
28432;BME280;15664;51.302;7.744;2023-02-19T02:12:14;83177.56;;;-146.98;100.00
28432;BME280;15664;51.302;7.744;2023-02-19T02:14:45;83185.72;;;-146.98;100.00
28432;BME280;15664;51.302;7.744;2023-02-19T02:20:02;83218.31;;;-146.98;100.00
28432;BME280;15664;51.302;7.744;2023-02-19T02:22:49;83254.97;;;-146.98;100.00
28432;BME280;15664;51.302;7.744;2023-02-19T02:25:30;83202.00;;;-146.98;100.00
28432;BME280;15664;51.302;7.744;2023-02-19T02:28:12;83214.22;;;-146.98;100.00
28432;BME280;15664;51.302;7.744;2023-02-19T02:31:08;83204.06;;;-146.98;100.00
28432;BME280;15664;51.302;7.744;2023-02-19T02:33:40;83279.41;;;-146.98;100.00
28432;BME280;15664;51.302;7.744;2023-02-19T02:36:16;83193.88;;;-146.98;100.00
28432;BME280;15664;51.302;7.744;2023-02-19T02:38:44;83191.84;;;-146.98;100.00
28432;BME280;15664;51.302;7.744;2023-02-19T02:41:12;83230.53;;;-146.98;100.00
28432;BME280;15664;51.302;7.744;2023-02-19T02:43:38;83167.41;;;-146.98;100.00
28432;BME280;15664;51.302;7.744;2023-02-19T02:46:04;83206.09;;;-146.98;100.00
28432;BME280;15664;51.302;7.744;2023-02-19T02:48:40;83232.56;;;-146.98;100.00
28432;BME280;15664;51.302;7.744;2023-02-19T02:51:27;83216.28;;;-146.98;100.00
28432;BME280;15664;51.302;7.744;2023-02-19T02:54:06;83193.88;;;-146.98;100.00
28432;BME280;15664;51.302;7.744;2023-02-19T02:56:54;83191.84;;;-146.98;100.00
28432;BME280;15664;51.302;7.744;2023-02-19T02:59:24;83181.66;;;-146.98;100.00
28432;BME280;15664;51.302;7.744;2023-02-19T03:02:15;83214.22;;;-146.98;100.00
28432;BME280;15664;51.302;7.744;2023-02-19T03:04:48;83275.31;;;-146.98;100.00
28432;BME280;15664;51.302;7.744;2023-02-19T03:07:39;83210.16;;;-146.98;100.00
28432;BME280;15664;51.302;7.744;2023-02-19T03:10:11;83218.31;;;-146.98;100.00
28432;BME280;15664;51.302;7.744;2023-02-19T03:12:39;83157.22;;;-146.98;100.00
28432;BME280;15664;51.302;7.744;2023-02-19T03:15:26;83189.78;;;-146.98;100.00
28432;BME280;15664;51.302;7.744;2023-02-19T03:18:13;83220.34;;;-146.98;100.00
28432;BME280;15664;51.302;7.744;2023-02-19T03:20:57;83218.31;;;-146.98;100.00
28432;BME280;15664;51.302;7.744;2023-02-19T03:23:26;83210.16;;;-146.98;100.00
28432;BME280;15664;51.302;7.744;2023-02-19T03:26:16;83197.94;;;-146.98;100.00
28432;BME280;15664;51.302;7.744;2023-02-19T03:28:51;83248.84;;;-146.98;100.00
28432;BME280;15664;51.302;7.744;2023-02-19T03:31:40;83226.44;;;-146.98;100.00
28432;BME280;15664;51.302;7.744;2023-02-19T03:34:10;83271.25;;;-146.98;100.00
28432;BME280;15664;51.302;7.744;2023-02-19T03:36:42;83224.41;;;-146.98;100.00
28432;BME280;15664;51.302;7.744;2023-02-19T03:39:09;83244.78;;;-146.98;100.00
28432;BME280;15664;51.302;7.744;2023-02-19T03:44:38;83250.88;;;-146.98;100.00
28432;BME280;15664;51.302;7.744;2023-02-19T03:47:31;83193.88;;;-146.98;100.00
28432;BME280;15664;51.302;7.744;2023-02-19T03:50:16;83299.75;;;-146.98;100.00
28432;BME280;15664;51.302;7.744;2023-02-19T03:55:31;83226.44;;;-146.98;100.00
28432;BME280;15664;51.302;7.744;2023-02-19T03:58:08;83267.19;;;-146.98;100.00
28432;BME280;15664;51.302;7.744;2023-02-19T04:00:48;83228.50;;;-146.98;100.00
28432;BME280;15664;51.302;7.744;2023-02-19T04:03:39;83236.63;;;-146.98;100.00
28432;BME280;15664;51.302;7.744;2023-02-19T04:06:28;83216.28;;;-146.98;100.00
28432;BME280;15664;51.302;7.744;2023-02-19T04:09:00;83210.16;;;-146.98;100.00
28432;BME280;15664;51.302;7.744;2023-02-19T04:11:29;83226.44;;;-146.98;100.00
28432;BME280;15664;51.302;7.744;2023-02-19T04:14:09;83238.66;;;-146.98;100.00
28432;BME280;15664;51.302;7.744;2023-02-19T04:16:40;83242.75;;;-146.98;100.00
28432;BME280;15664;51.302;7.744;2023-02-19T04:19:12;83232.56;;;-146.98;100.00
28432;BME280;15664;51.302;7.744;2023-02-19T04:21:39;83252.94;;;-146.98;100.00
28432;BME280;15664;51.302;7.744;2023-02-19T04:24:11;83238.66;;;-146.98;100.00
28432;BME280;15664;51.302;7.744;2023-02-19T04:26:38;83230.53;;;-146.98;100.00
28432;BME280;15664;51.302;7.744;2023-02-19T04:29:04;83236.63;;;-146.98;100.00
28432;BME280;15664;51.302;7.744;2023-02-19T04:31:31;83250.88;;;-146.98;100.00
28432;BME280;15664;51.302;7.744;2023-02-19T04:34:00;83226.44;;;-146.98;100.00
28432;BME280;15664;51.302;7.744;2023-02-19T04:36:26;83281.44;;;-146.98;100.00
28432;BME280;15664;51.302;7.744;2023-02-19T04:38:51;83279.41;;;-146.98;100.00
28432;BME280;15664;51.302;7.744;2023-02-19T04:41:17;83295.69;;;-146.98;100.00
28432;BME280;15664;51.302;7.744;2023-02-19T04:43:42;83267.19;;;-146.98;100.00
28432;BME280;15664;51.302;7.744;2023-02-19T04:46:08;83320.13;;;-146.98;100.00
28432;BME280;15664;51.302;7.744;2023-02-19T04:48:33;83275.31;;;-146.98;100.00
28432;BME280;15664;51.302;7.744;2023-02-19T04:51:04;83344.56;;;-146.98;100.00
28432;BME280;15664;51.302;7.744;2023-02-19T04:53:29;83289.59;;;-146.98;100.00
28432;BME280;15664;51.302;7.744;2023-02-19T04:55:55;83356.78;;;-146.98;100.00
28432;BME280;15664;51.302;7.744;2023-02-19T04:58:21;83332.34;;;-146.98;100.00
28432;BME280;15664;51.302;7.744;2023-02-19T05:00:50;83236.63;;;-146.98;100.00
28432;BME280;15664;51.302;7.744;2023-02-19T05:03:16;83271.25;;;-146.98;100.00
28432;BME280;15664;51.302;7.744;2023-02-19T05:05:41;83305.88;;;-146.98;100.00
28432;BME280;15664;51.302;7.744;2023-02-19T05:08:07;83303.84;;;-146.98;100.00
28432;BME280;15664;51.302;7.744;2023-02-19T05:10:32;83344.56;;;-146.98;100.00
28432;BME280;15664;51.302;7.744;2023-02-19T05:12:58;83301.81;;;-146.98;100.00
28432;BME280;15664;51.302;7.744;2023-02-19T05:15:24;83303.84;;;-146.98;100.00
28432;BME280;15664;51.302;7.744;2023-02-19T05:17:49;83311.97;;;-146.98;100.00
28432;BME280;15664;51.302;7.744;2023-02-19T05:20:15;83265.16;;;-146.98;100.00
28432;BME280;15664;51.302;7.744;2023-02-19T05:22:41;83265.16;;;-146.98;100.00
28432;BME280;15664;51.302;7.744;2023-02-19T05:25:06;83287.53;;;-146.98;100.00
28432;BME280;15664;51.302;7.744;2023-02-19T05:27:32;83322.16;;;-146.98;100.00
28432;BME280;15664;51.302;7.744;2023-02-19T05:29:57;83301.81;;;-146.98;100.00
28432;BME280;15664;51.302;7.744;2023-02-19T05:32:22;83314.03;;;-146.98;100.00
28432;BME280;15664;51.302;7.744;2023-02-19T05:34:49;83279.41;;;-146.98;100.00
28432;BME280;15664;51.302;7.744;2023-02-19T05:37:15;83322.16;;;-146.98;100.00
28432;BME280;15664;51.302;7.744;2023-02-19T05:39:40;83311.97;;;-146.98;100.00
28432;BME280;15664;51.302;7.744;2023-02-19T05:42:06;83340.50;;;-146.98;100.00
28432;BME280;15664;51.302;7.744;2023-02-19T05:44:31;83287.53;;;-146.98;100.00
28432;BME280;15664;51.302;7.744;2023-02-19T05:46:57;83289.59;;;-146.98;100.00
28432;BME280;15664;51.302;7.744;2023-02-19T05:49:22;83314.03;;;-146.98;100.00
28432;BME280;15664;51.302;7.744;2023-02-19T05:51:51;83330.31;;;-146.98;100.00
28432;BME280;15664;51.302;7.744;2023-02-19T05:54:16;83348.66;;;-146.98;100.00
28432;BME280;15664;51.302;7.744;2023-02-19T05:56:41;83314.03;;;-146.98;100.00
28432;BME280;15664;51.302;7.744;2023-02-19T05:59:19;83299.75;;;-146.98;100.00
28432;BME280;15664;51.302;7.744;2023-02-19T06:01:46;83344.56;;;-146.98;100.00
28432;BME280;15664;51.302;7.744;2023-02-19T06:04:12;83279.41;;;-146.98;100.00
28432;BME280;15664;51.302;7.744;2023-02-19T06:06:38;83307.91;;;-146.98;100.00
28432;BME280;15664;51.302;7.744;2023-02-19T06:09:05;83352.72;;;-146.98;100.00
28432;BME280;15664;51.302;7.744;2023-02-19T06:11:31;83369.00;;;-146.98;100.00
28432;BME280;15664;51.302;7.744;2023-02-19T06:13:56;83289.59;;;-146.98;100.00
28432;BME280;15664;51.302;7.744;2023-02-19T06:16:22;83295.69;;;-146.98;100.00
28432;BME280;15664;51.302;7.744;2023-02-19T06:18:48;83316.06;;;-146.98;100.00
28432;BME280;15664;51.302;7.744;2023-02-19T06:21:15;83291.63;;;-146.98;100.00
28432;BME280;15664;51.302;7.744;2023-02-19T06:23:41;83352.72;;;-146.98;100.00
28432;BME280;15664;51.302;7.744;2023-02-19T06:26:12;83279.41;;;-146.98;100.00
28432;BME280;15664;51.302;7.744;2023-02-19T06:28:39;83324.22;;;-146.98;100.00
28432;BME280;15664;51.302;7.744;2023-02-19T06:31:05;83275.31;;;-146.98;100.00
28432;BME280;15664;51.302;7.744;2023-02-19T06:33:32;83316.06;;;-146.98;100.00
28432;BME280;15664;51.302;7.744;2023-02-19T06:35:59;83326.25;;;-146.98;100.00
28432;BME280;15664;51.302;7.744;2023-02-19T06:38:26;83354.75;;;-146.98;100.00
28432;BME280;15664;51.302;7.744;2023-02-19T06:40:51;83279.41;;;-146.98;100.00
28432;BME280;15664;51.302;7.744;2023-02-19T06:43:17;83332.34;;;-146.98;100.00
28432;BME280;15664;51.302;7.744;2023-02-19T06:45:43;83311.97;;;-146.98;100.00
28432;BME280;15664;51.302;7.744;2023-02-19T06:48:08;83320.13;;;-146.98;100.00
28432;BME280;15664;51.302;7.744;2023-02-19T06:50:33;83311.97;;;-146.98;100.00
28432;BME280;15664;51.302;7.744;2023-02-19T06:52:59;83352.72;;;-146.98;100.00
28432;BME280;15664;51.302;7.744;2023-02-19T06:55:25;83279.41;;;-146.98;100.00
28432;BME280;15664;51.302;7.744;2023-02-19T06:57:51;83322.16;;;-146.98;100.00
28432;BME280;15664;51.302;7.744;2023-02-19T07:00:16;83328.28;;;-146.98;100.00
28432;BME280;15664;51.302;7.744;2023-02-19T07:02:42;83340.50;;;-146.98;100.00
28432;BME280;15664;51.302;7.744;2023-02-19T07:05:08;83318.09;;;-146.98;100.00
28432;BME280;15664;51.302;7.744;2023-02-19T07:07:33;83348.66;;;-146.98;100.00
28432;BME280;15664;51.302;7.744;2023-02-19T07:09:59;83314.03;;;-146.98;100.00
28432;BME280;15664;51.302;7.744;2023-02-19T07:12:24;83285.50;;;-146.98;100.00
28432;BME280;15664;51.302;7.744;2023-02-19T07:14:49;83336.41;;;-146.98;100.00
28432;BME280;15664;51.302;7.744;2023-02-19T07:17:15;83324.22;;;-146.98;100.00
28432;BME280;15664;51.302;7.744;2023-02-19T07:19:40;83375.13;;;-146.98;100.00
28432;BME280;15664;51.302;7.744;2023-02-19T07:22:05;83328.28;;;-146.98;100.00
28432;BME280;15664;51.302;7.744;2023-02-19T07:24:31;83320.13;;;-146.98;100.00
28432;BME280;15664;51.302;7.744;2023-02-19T07:26:56;83259.03;;;-146.98;100.00
28432;BME280;15664;51.302;7.744;2023-02-19T07:29:22;83352.72;;;-146.98;100.00
28432;BME280;15664;51.302;7.744;2023-02-19T07:31:47;83307.91;;;-146.98;100.00
28432;BME280;15664;51.302;7.744;2023-02-19T07:34:13;83340.50;;;-146.98;100.00
28432;BME280;15664;51.302;7.744;2023-02-19T07:36:38;83340.50;;;-146.98;100.00
28432;BME280;15664;51.302;7.744;2023-02-19T07:39:04;83318.09;;;-146.98;100.00
28432;BME280;15664;51.302;7.744;2023-02-19T07:41:30;83358.81;;;-146.98;100.00
28432;BME280;15664;51.302;7.744;2023-02-19T07:43:57;83316.06;;;-146.98;100.00
28432;BME280;15664;51.302;7.744;2023-02-19T07:46:22;83309.94;;;-146.98;100.00
28432;BME280;15664;51.302;7.744;2023-02-19T07:48:48;83352.72;;;-146.98;100.00
28432;BME280;15664;51.302;7.744;2023-02-19T07:51:16;83295.69;;;-146.98;100.00
28432;BME280;15664;51.302;7.744;2023-02-19T07:53:44;83336.41;;;-146.98;100.00
28432;BME280;15664;51.302;7.744;2023-02-19T07:56:10;83348.66;;;-146.98;100.00
28432;BME280;15664;51.302;7.744;2023-02-19T07:58:37;83326.25;;;-146.98;100.00
28432;BME280;15664;51.302;7.744;2023-02-19T08:01:11;83295.69;;;-146.98;100.00
28432;BME280;15664;51.302;7.744;2023-02-19T08:03:38;83340.50;;;-146.98;100.00
28432;BME280;15664;51.302;7.744;2023-02-19T08:06:03;83334.38;;;-146.98;100.00
28432;BME280;15664;51.302;7.744;2023-02-19T08:08:29;83324.22;;;-146.98;100.00
28432;BME280;15664;51.302;7.744;2023-02-19T08:11:01;83332.34;;;-146.98;100.00
28432;BME280;15664;51.302;7.744;2023-02-19T08:13:48;83305.88;;;-146.98;100.00
28432;BME280;15664;51.302;7.744;2023-02-19T08:16:13;83320.13;;;-146.98;100.00
28432;BME280;15664;51.302;7.744;2023-02-19T08:18:42;83273.28;;;-146.98;100.00
28432;BME280;15664;51.302;7.744;2023-02-19T08:21:10;83324.22;;;-146.98;100.00
28432;BME280;15664;51.302;7.744;2023-02-19T08:23:36;83364.94;;;-146.98;100.00
28432;BME280;15664;51.302;7.744;2023-02-19T08:26:02;83340.50;;;-146.98;100.00
28432;BME280;15664;51.302;7.744;2023-02-19T08:28:28;83309.94;;;-146.98;100.00
28432;BME280;15664;51.302;7.744;2023-02-19T08:30:59;83309.94;;;-146.98;100.00
28432;BME280;15664;51.302;7.744;2023-02-19T08:33:25;83336.41;;;-146.98;100.00
28432;BME280;15664;51.302;7.744;2023-02-19T08:35:51;83303.84;;;-146.98;100.00
28432;BME280;15664;51.302;7.744;2023-02-19T08:38:17;83320.13;;;-146.98;100.00
28432;BME280;15664;51.302;7.744;2023-02-19T08:40:43;83289.59;;;-146.98;100.00
28432;BME280;15664;51.302;7.744;2023-02-19T08:43:12;83318.09;;;-146.98;100.00
28432;BME280;15664;51.302;7.744;2023-02-19T08:45:40;83320.13;;;-146.98;100.00
28432;BME280;15664;51.302;7.744;2023-02-19T08:48:06;83342.53;;;-146.98;100.00
28432;BME280;15664;51.302;7.744;2023-02-19T08:50:32;83305.88;;;-146.98;100.00
28432;BME280;15664;51.302;7.744;2023-02-19T08:53:19;83318.09;;;-146.98;100.00
28432;BME280;15664;51.302;7.744;2023-02-19T08:55:45;83340.50;;;-146.98;100.00
28432;BME280;15664;51.302;7.744;2023-02-19T08:58:10;83328.28;;;-146.98;100.00
28432;BME280;15664;51.302;7.744;2023-02-19T09:00:36;83295.69;;;-146.98;100.00
28432;BME280;15664;51.302;7.744;2023-02-19T09:03:01;83348.66;;;-146.98;100.00
28432;BME280;15664;51.302;7.744;2023-02-19T09:05:27;83336.41;;;-146.98;100.00
28432;BME280;15664;51.302;7.744;2023-02-19T09:07:53;83311.97;;;-146.98;100.00
28432;BME280;15664;51.302;7.744;2023-02-19T09:10:18;83377.16;;;-146.98;100.00
28432;BME280;15664;51.302;7.744;2023-02-19T09:12:44;83364.94;;;-146.98;100.00
28432;BME280;15664;51.302;7.744;2023-02-19T09:15:09;83299.75;;;-146.98;100.00
28432;BME280;15664;51.302;7.744;2023-02-19T09:17:35;83354.75;;;-146.98;100.00
28432;BME280;15664;51.302;7.744;2023-02-19T09:20:00;83348.66;;;-146.98;100.00
28432;BME280;15664;51.302;7.744;2023-02-19T09:22:26;83303.84;;;-146.98;100.00
28432;BME280;15664;51.302;7.744;2023-02-19T09:24:51;83334.38;;;-146.98;100.00
28432;BME280;15664;51.302;7.744;2023-02-19T09:27:18;83316.06;;;-146.98;100.00
28432;BME280;15664;51.302;7.744;2023-02-19T09:29:44;83344.56;;;-146.98;100.00
28432;BME280;15664;51.302;7.744;2023-02-19T09:32:10;83340.50;;;-146.98;100.00
28432;BME280;15664;51.302;7.744;2023-02-19T09:34:36;83318.09;;;-146.98;100.00
28432;BME280;15664;51.302;7.744;2023-02-19T09:37:03;83395.47;;;-146.98;100.00
28432;BME280;15664;51.302;7.744;2023-02-19T09:39:29;83320.13;;;-146.98;100.00
28432;BME280;15664;51.302;7.744;2023-02-19T09:42:14;83326.25;;;-146.98;100.00
28432;BME280;15664;51.302;7.744;2023-02-19T09:44:43;83307.91;;;-146.98;100.00
28432;BME280;15664;51.302;7.744;2023-02-19T09:47:21;83307.91;;;-146.98;100.00
28432;BME280;15664;51.302;7.744;2023-02-19T09:49:50;83336.41;;;-146.98;100.00
28432;BME280;15664;51.302;7.744;2023-02-19T09:52:29;83287.53;;;-146.98;100.00
28432;BME280;15664;51.302;7.744;2023-02-19T09:55:00;83281.44;;;-146.98;100.00
28432;BME280;15664;51.302;7.744;2023-02-19T09:57:29;83303.84;;;-146.98;100.00
28432;BME280;15664;51.302;7.744;2023-02-19T10:00:13;83289.59;;;-146.98;100.00
28432;BME280;15664;51.302;7.744;2023-02-19T10:02:43;83336.41;;;-146.98;100.00
28432;BME280;15664;51.302;7.744;2023-02-19T10:05:12;83334.38;;;-146.98;100.00
28432;BME280;15664;51.302;7.744;2023-02-19T10:07:46;83301.81;;;-146.98;100.00
28432;BME280;15664;51.302;7.744;2023-02-19T10:12:49;83330.31;;;-146.98;100.00
28432;BME280;15664;51.302;7.744;2023-02-19T10:15:19;83295.69;;;-146.98;100.00
28432;BME280;15664;51.302;7.744;2023-02-19T10:17:47;83320.13;;;-146.98;100.00
28432;BME280;15664;51.302;7.744;2023-02-19T10:20:18;83332.34;;;-146.98;100.00
28432;BME280;15664;51.302;7.744;2023-02-19T10:22:44;83334.38;;;-146.98;100.00
28432;BME280;15664;51.302;7.744;2023-02-19T10:25:14;83320.13;;;-146.98;100.00
28432;BME280;15664;51.302;7.744;2023-02-19T10:27:40;83356.78;;;-146.98;100.00
28432;BME280;15664;51.302;7.744;2023-02-19T10:30:16;83322.16;;;-146.98;100.00
28432;BME280;15664;51.302;7.744;2023-02-19T10:33:01;83360.88;;;-146.98;100.00
28432;BME280;15664;51.302;7.744;2023-02-19T10:35:28;83369.00;;;-146.98;100.00
28432;BME280;15664;51.302;7.744;2023-02-19T10:37:55;83311.97;;;-146.98;100.00
28432;BME280;15664;51.302;7.744;2023-02-19T10:40:24;83340.50;;;-146.98;100.00
28432;BME280;15664;51.302;7.744;2023-02-19T10:42:56;83314.03;;;-146.98;100.00
28432;BME280;15664;51.302;7.744;2023-02-19T10:45:45;83330.31;;;-146.98;100.00
28432;BME280;15664;51.302;7.744;2023-02-19T10:48:46;83299.75;;;-146.98;100.00
28432;BME280;15664;51.302;7.744;2023-02-19T10:51:14;83307.91;;;-146.98;100.00
28432;BME280;15664;51.302;7.744;2023-02-19T10:53:47;83366.97;;;-146.98;100.00
28432;BME280;15664;51.302;7.744;2023-02-19T10:56:21;83299.75;;;-146.98;100.00
28432;BME280;15664;51.302;7.744;2023-02-19T10:58:46;83336.41;;;-146.98;100.00
28432;BME280;15664;51.302;7.744;2023-02-19T11:01:23;83324.22;;;-146.98;100.00
28432;BME280;15664;51.302;7.744;2023-02-19T11:03:51;83330.31;;;-146.98;100.00
28432;BME280;15664;51.302;7.744;2023-02-19T11:06:19;83336.41;;;-146.98;100.00
28432;BME280;15664;51.302;7.744;2023-02-19T11:08:53;83352.72;;;-146.98;100.00
28432;BME280;15664;51.302;7.744;2023-02-19T11:14:01;83293.66;;;-146.98;100.00
28432;BME280;15664;51.302;7.744;2023-02-19T11:16:38;83271.25;;;-146.98;100.00
28432;BME280;15664;51.302;7.744;2023-02-19T11:19:04;83267.19;;;-146.98;100.00
28432;BME280;15664;51.302;7.744;2023-02-19T11:21:30;83185.72;;;-146.98;100.00
28432;BME280;15664;51.302;7.744;2023-02-19T11:24:01;83189.78;;;-146.98;100.00
28432;BME280;15664;51.302;7.744;2023-02-19T11:26:31;83147.03;;;-146.98;100.00
28432;BME280;15664;51.302;7.744;2023-02-19T11:29:01;83293.66;;;-146.98;99.37
28432;BME280;15664;51.302;7.744;2023-02-19T11:31:35;83169.44;;;-146.98;100.00
28432;BME280;15664;51.302;7.744;2023-02-19T11:36:34;83136.84;;;-146.98;100.00
28432;BME280;15664;51.302;7.744;2023-02-19T11:39:24;83210.16;;;-146.98;100.00
28432;BME280;15664;51.302;7.744;2023-02-19T11:42:13;83220.34;;;-146.98;100.00
28432;BME280;15664;51.302;7.744;2023-02-19T11:44:56;83254.97;;;-146.98;100.00
28432;BME280;15664;51.302;7.744;2023-02-19T11:50:26;83283.47;;;-146.98;100.00
28432;BME280;15664;51.302;7.744;2023-02-19T11:53:08;83246.81;;;-146.98;100.00
28432;BME280;15664;51.302;7.744;2023-02-19T11:55:50;83279.41;;;-146.98;100.00
28432;BME280;15664;51.302;7.744;2023-02-19T12:01:20;83269.22;;;-146.98;100.00
28432;BME280;15664;51.302;7.744;2023-02-19T12:04:27;83269.22;;;-146.98;100.00
28432;BME280;15664;51.302;7.744;2023-02-19T12:18:50;83242.75;;;-146.98;100.00
28432;BME280;15664;51.302;7.744;2023-02-19T12:21:27;83263.09;;;-146.98;100.00
28432;BME280;15664;51.302;7.744;2023-02-19T12:24:19;83273.28;;;-146.98;100.00
28432;BME280;15664;51.302;7.744;2023-02-19T12:29:40;83271.25;;;-146.98;100.00
28432;BME280;15664;51.302;7.744;2023-02-19T12:43:17;83222.38;;;-146.98;100.00
28432;BME280;15664;51.302;7.744;2023-02-19T12:46:00;83283.47;;;-146.98;100.00
28432;BME280;15664;51.302;7.744;2023-02-19T12:48:57;83232.56;;;-146.98;100.00
28432;BME280;15664;51.302;7.744;2023-02-19T12:52:09;83206.09;;;-146.98;100.00
28432;BME280;15664;51.302;7.744;2023-02-19T12:54:55;83275.31;;;-146.98;100.00
28432;BME280;15664;51.302;7.744;2023-02-19T12:57:25;83224.41;;;-146.98;100.00
28432;BME280;15664;51.302;7.744;2023-02-19T13:02:39;83189.78;;;-146.98;100.00
28432;BME280;15664;51.302;7.744;2023-02-19T13:05:39;83197.94;;;-146.98;100.00
28432;BME280;15664;51.302;7.744;2023-02-19T13:08:20;83187.75;;;-146.98;100.00
28432;BME280;15664;51.302;7.744;2023-02-19T13:10:54;83210.16;;;-146.98;100.00
28432;BME280;15664;51.302;7.744;2023-02-19T13:13:31;83210.16;;;-146.98;100.00
28432;BME280;15664;51.302;7.744;2023-02-19T13:16:06;83275.31;;;-146.98;100.00
28432;BME280;15664;51.302;7.744;2023-02-19T13:18:40;83267.19;;;-146.98;100.00
28432;BME280;15664;51.302;7.744;2023-02-19T13:21:07;83232.56;;;-146.98;100.00
28432;BME280;15664;51.302;7.744;2023-02-19T13:23:39;83250.88;;;-146.98;100.00
28432;BME280;15664;51.302;7.744;2023-02-19T13:29:52;83277.38;;;-146.98;100.00
28432;BME280;15664;51.302;7.744;2023-02-19T13:35:24;83275.31;;;-146.98;100.00
28432;BME280;15664;51.302;7.744;2023-02-19T13:37:53;83267.19;;;-146.98;100.00
28432;BME280;15664;51.302;7.744;2023-02-19T13:40:30;83279.41;;;-146.98;100.00
28432;BME280;15664;51.302;7.744;2023-02-19T13:43:02;83234.59;;;-146.98;100.00
28432;BME280;15664;51.302;7.744;2023-02-19T13:45:40;83289.59;;;-146.98;100.00
28432;BME280;15664;51.302;7.744;2023-02-19T13:48:26;83366.97;;;-146.98;100.00